Smith Reynolds Airport
KINT : now visible

Airfield :











YOU CAN JOIN US ON...

 
LOGIN :

Register | Disclaimer

   EN    FR    IT 

 









Legend :    VFR   Marginal VFR   IFR   Intensive IFR   Very Intensive IFR
Visi :
Ceiling :
>= 8 km
>= 3000ft
5 to 8 km
1000 to 3000 ft
1500m to 5 km
500 to 1000 ft
800 to 1500m
200 to 500 ft
< 800m
< 200 ft
Symbols :   Thunderstorms  Fog  Heavy snow  Heavy precipitations  Wind > 20 kt






- Airport Elevation : 969 ft
- IATA code : INT


KINT - Smith Reynolds

CURRENT METAR :
  • 091714Z 28004KT 2 1/2SM -RA BR OVC004 04/03 A3006 RMK AO2 RAB1659 P0003 T00390033

EXPIRED METARs :
  • 091705Z 27004KT 2 1/2SM RA BR OVC006 04/03 A3006 RMK AO2 RAB1659 CIG 003V007 P0003 T00390033
  • 091654Z 25004KT 7SM OVC006 04/03 A3007 RMK AO2 SLP186 T00440033
  • 091613Z 28006KT 7SM OVC009 04/02 A3009 RMK AO2 CIG 006V011 T00390022
  • 091554Z 00000KT 10SM BKN010 OVC021 04/02 A3009 RMK AO2 RAE1456B13E22 SLP194 P0000 T00390022
  • 091454Z 28003KT 7SM -RA OVC010 03/02 A3012 RMK AO2 RAB09 SLP204 P0000 60008 T00330017 56008

TAF KINT
Valid from the 09 at 16:00 until the 10 at 12:00 UTC


091605Z 0916/1012 VRB03KT 6SM -RADZ BKN008 OVC015 WS016/20035KT
FM092000 VRB03KT 1SM BR OVC003 WS014/20035KT
FM100300 VRB03KT 1/2SM DZ FG OVC002 WS014/20035KT



MET'MAP, your aeronautical weather chart ! - Copyright ORBIFLY December 2007 - Disclaimer

ORBIFLY MET'MAP TEAM :

Programming & Development : Alexandra Zaïnal
Concept & original design : Baudouin d'Aumeries
Assistance for programming : Marc-Olivier Méhu
Technical & hardware support : Manuel Goepfert

Contact : metmap@orbifly.com




SOURCES & CREDITS :

   NOAA       Earth
Advisory